Time;durP1;ratioP1;P1;durP2;ratioP2;P2;SDS_P1;SDS_P2;PMS_P1;PMS_P2;Temp;Humidity;BMP_temperature;BMP_pressure;BME280_temperature;BME280_humidity;BME280_pressure;Samples;Min_cycle;Max_cycle;Signal;HPM_P1;HPM_P2
2022/01/28 00:00:33;;;;;;;30.05;12.90;;;;;;;;;;4978253;28;20062;-71
2022/01/28 00:03:07;;;;;;;33.22;13.93;;;;;;;;;;4981609;28;20041;-71
2022/01/28 00:05:34;;;;;;;30.55;14.05;;;;;;;;;;4972473;28;20125;-70
2022/01/28 00:07:59;;;;;;;34.22;13.55;;;;;;;;;;4983139;28;20034;-71
2022/01/28 00:10:27;;;;;;;33.05;13.02;;;;;;;;;;4986640;28;20613;-71
2022/01/28 00:15:26;;;;;;;30.85;13.40;;;;;;;;;;4985790;28;20042;-70
2022/01/28 00:37:25;;;;;;;27.83;12.50;;;;;;;;;;4953637;28;20135;-70
2022/01/28 00:39:51;;;;;;;29.60;12.70;;;;;;;;;;4980459;28;20117;-70
2022/01/28 00:42:17;;;;;;;25.92;12.02;;;;;;;;;;4977947;28;20136;-71
2022/01/28 00:44:42;;;;;;;24.52;11.50;;;;;;;;;;4981856;28;20070;-72
2022/01/28 00:47:07;;;;;;;26.88;12.02;;;;;;;;;;4979178;28;20042;-71
2022/01/28 00:49:33;;;;;;;24.27;10.82;;;;;;;;;;4983627;28;20077;-71
2022/01/28 00:51:58;;;;;;;23.27;10.10;;;;;;;;;;4983751;28;20030;-71
2022/01/28 00:54:23;;;;;;;22.30;10.35;;;;;;;;;;4981916;28;20428;-70
2022/01/28 00:56:49;;;;;;;37.60;12.07;;;;;;;;;;4978963;28;20037;-70
2022/01/28 00:59:14;;;;;;;24.88;12.15;;;;;;;;;;4981157;28;20057;-70
2022/01/28 01:01:40;;;;;;;39.22;11.45;;;;;;;;;;4979921;28;20143;-71
2022/01/28 01:04:05;;;;;;;34.17;11.93;;;;;;;;;;4977859;28;20484;-70
2022/01/28 01:06:32;;;;;;;30.20;11.93;;;;;;;;;;4978963;28;20049;-71
2022/01/28 01:08:57;;;;;;;21.55;11.15;;;;;;;;;;4989900;28;20046;-71
2022/01/28 01:11:24;;;;;;;24.05;11.25;;;;;;;;;;4987069;28;20562;-70
2022/01/28 01:13:50;;;;;;;25.85;11.13;;;;;;;;;;4973124;28;20125;-71
2022/01/28 01:16:21;;;;;;;22.88;11.38;;;;;;;;;;4984391;28;20026;-71
2022/01/28 01:18:54;;;;;;;21.90;10.88;;;;;;;;;;4980840;28;20035;-71
2022/01/28 01:21:24;;;;;;;24.58;12.18;;;;;;;;;;4985759;28;20039;-70
2022/01/28 01:23:52;;;;;;;27.50;10.95;;;;;;;;;;4980512;28;20034;-70
2022/01/28 01:26:18;;;;;;;20.02;10.10;;;;;;;;;;4990163;28;20034;-71
2022/01/28 01:28:44;;;;;;;21.65;10.07;;;;;;;;;;5001987;28;20416;-71
2022/01/28 01:31:13;;;;;;;26.65;11.27;;;;;;;;;;4980400;28;20215;-70
2022/01/28 01:33:52;;;;;;;25.48;11.25;;;;;;;;;;4983825;28;20026;-70
2022/01/28 01:36:17;;;;;;;32.65;11.82;;;;;;;;;;4976216;28;20089;-71
2022/01/28 01:38:43;;;;;;;27.30;11.77;;;;;;;;;;4979333;28;20117;-71
2022/01/28 01:41:17;;;;;;;27.27;11.82;;;;;;;;;;4981342;28;20084;-71
2022/01/28 01:44:06;;;;;;;24.92;12.30;;;;;;;;;;4986379;28;20508;-71
2022/01/28 01:52:05;;;;;;;22.33;10.50;;;;;;;;;;4973078;28;20089;-70
2022/01/28 01:54:43;;;;;;;28.75;11.57;;;;;;;;;;4996863;28;20058;-70
2022/01/28 01:57:11;;;;;;;26.55;11.30;;;;;;;;;;4982099;28;20031;-70
2022/01/28 01:59:38;;;;;;;19.25;10.18;;;;;;;;;;4976786;28;20049;-71
2022/01/28 02:02:04;;;;;;;24.40;10.65;;;;;;;;;;4983359;28;20038;-71
2022/01/28 02:04:29;;;;;;;23.15;11.52;;;;;;;;;;4978668;28;20037;-71
2022/01/28 02:06:55;;;;;;;20.48;11.00;;;;;;;;;;4990345;28;20046;-71
2022/01/28 02:09:21;;;;;;;23.08;10.35;;;;;;;;;;4985982;28;20047;-70
2022/01/28 02:11:46;;;;;;;23.70;11.13;;;;;;;;;;4970939;28;20133;-69
2022/01/28 02:14:11;;;;;;;23.70;10.07;;;;;;;;;;4987776;28;20077;-71
2022/01/28 02:16:37;;;;;;;16.33;8.68;;;;;;;;;;4984711;28;20117;-71
2022/01/28 02:19:03;;;;;;;21.85;9.85;;;;;;;;;;4979369;28;20030;-70
2022/01/28 02:21:40;;;;;;;20.20;9.75;;;;;;;;;;4987022;28;20080;-70
2022/01/28 02:24:07;;;;;;;24.65;10.20;;;;;;;;;;4987182;28;20126;-71
2022/01/28 02:26:35;;;;;;;27.42;10.38;;;;;;;;;;4971170;28;20560;-71
2022/01/28 02:29:07;;;;;;;23.55;10.48;;;;;;;;;;4981060;28;20030;-70
2022/01/28 02:31:33;;;;;;;24.77;10.65;;;;;;;;;;4982957;28;20034;-70
2022/01/28 02:33:59;;;;;;;23.85;10.13;;;;;;;;;;4987174;28;20019;-71
2022/01/28 02:36:25;;;;;;;23.58;9.65;;;;;;;;;;4985348;28;20091;-70
2022/01/28 02:38:52;;;;;;;21.05;9.20;;;;;;;;;;4982364;28;20053;-71
2022/01/28 02:41:17;;;;;;;23.17;10.32;;;;;;;;;;4975787;28;20121;-71
2022/01/28 02:43:58;;;;;;;18.88;9.30;;;;;;;;;;4985470;28;20118;-70
2022/01/28 02:46:26;;;;;;;22.30;9.40;;;;;;;;;;4994455;28;20030;-71
2022/01/28 02:48:59;;;;;;;23.27;10.30;;;;;;;;;;4988252;28;20469;-71
2022/01/28 02:51:25;;;;;;;22.27;9.82;;;;;;;;;;4988344;28;20030;-70
2022/01/28 02:53:56;;;;;;;19.95;9.30;;;;;;;;;;4980677;28;20034;-69
2022/01/28 02:56:34;;;;;;;24.77;10.02;;;;;;;;;;4958885;28;20514;-71
2022/01/28 02:59:00;;;;;;;21.30;9.65;;;;;;;;;;4980632;28;20062;-71
2022/01/28 03:01:26;;;;;;;19.73;9.88;;;;;;;;;;4986055;28;20038;-71
2022/01/28 03:03:53;;;;;;;21.55;8.95;;;;;;;;;;4982575;28;20105;-71
2022/01/28 03:06:20;;;;;;;19.50;8.93;;;;;;;;;;4982884;28;20050;-71
2022/01/28 03:09:46;;;;;;;19.42;8.95;;;;;;;;;;4980143;28;20104;-71
2022/01/28 03:11:43;;;;;;;21.73;8.48;;;;;;;;;;4965620;28;20528;-71
2022/01/28 03:14:20;;;;;;;23.55;9.02;;;;;;;;;;4972128;28;20125;-71
2022/01/28 03:19:29;;;;;;;18.38;8.55;;;;;;;;;;4981998;28;20061;-70
2022/01/28 03:21:56;;;;;;;20.15;9.10;;;;;;;;;;4987535;28;20023;-70
2022/01/28 03:24:26;;;;;;;20.75;8.55;;;;;;;;;;4982954;28;20038;-71
2022/01/28 03:26:57;;;;;;;20.95;8.65;;;;;;;;;;4981700;28;20539;-70
2022/01/28 03:29:22;;;;;;;19.73;8.95;;;;;;;;;;4978115;28;20039;-70
2022/01/28 03:31:48;;;;;;;24.80;8.57;;;;;;;;;;4979570;28;20050;-71
2022/01/28 03:34:13;;;;;;;18.10;9.23;;;;;;;;;;4978877;28;20774;-71
2022/01/28 03:36:39;;;;;;;29.77;9.25;;;;;;;;;;4983468;28;20022;-71
2022/01/28 03:39:05;;;;;;;20.52;8.25;;;;;;;;;;4981726;28;20169;-71
2022/01/28 03:41:30;;;;;;;15.07;8.00;;;;;;;;;;4979450;28;20069;-71
2022/01/28 03:43:58;;;;;;;24.80;8.35;;;;;;;;;;4980535;28;20038;-71
2022/01/28 03:46:25;;;;;;;20.88;8.63;;;;;;;;;;4971668;28;20097;-70
2022/01/28 03:48:51;;;;;;;19.33;8.23;;;;;;;;;;4982376;28;20022;-71
2022/01/28 03:51:17;;;;;;;19.45;8.88;;;;;;;;;;4992691;28;20030;-70
2022/01/28 03:53:42;;;;;;;21.38;8.82;;;;;;;;;;4983982;28;20501;-70
2022/01/28 03:56:07;;;;;;;20.77;8.05;;;;;;;;;;4979080;28;20400;-70
2022/01/28 03:58:33;;;;;;;18.50;8.18;;;;;;;;;;4972421;28;20045;-71
2022/01/28 04:00:58;;;;;;;19.05;7.85;;;;;;;;;;4985735;28;20053;-71
2022/01/28 04:11:39;;;;;;;23.60;9.10;;;;;;;;;;4978195;28;20049;-71
2022/01/28 04:19:35;;;;;;;20.10;8.75;;;;;;;;;;4978827;28;20578;-71
2022/01/28 04:22:01;;;;;;;18.35;8.85;;;;;;;;;;4980265;28;20080;-70
2022/01/28 04:24:26;;;;;;;21.55;10.05;;;;;;;;;;4977459;28;20447;-71
2022/01/28 04:26:51;;;;;;;52.47;10.30;;;;;;;;;;4977711;28;20046;-70
2022/01/28 04:29:17;;;;;;;44.58;9.30;;;;;;;;;;4977381;28;20097;-70
2022/01/28 04:31:46;;;;;;;77.47;9.73;;;;;;;;;;4980636;28;20027;-71
2022/01/28 04:34:16;;;;;;;100.28;10.73;;;;;;;;;;4972865;28;20027;-70
2022/01/28 04:37:00;;;;;;;84.20;10.68;;;;;;;;;;4979816;28;20027;-71
2022/01/28 04:42:17;;;;;;;134.88;12.07;;;;;;;;;;4975886;28;20031;-71
2022/01/28 04:50:12;;;;;;;48.13;10.27;;;;;;;;;;4987603;28;20038;-71
2022/01/28 04:53:00;;;;;;;123.95;10.88;;;;;;;;;;4995154;28;20527;-71
2022/01/28 05:00:27;;;;;;;80.50;11.23;;;;;;;;;;4981655;28;20049;-70
2022/01/28 05:26:26;;;;;;;85.50;13.18;;;;;;;;;;4980122;28;20125;-70
2022/01/28 05:28:52;;;;;;;102.00;12.80;;;;;;;;;;4965789;28;20070;-70
2022/01/28 05:31:18;;;;;;;96.65;13.30;;;;;;;;;;4983512;28;20054;-70
2022/01/28 05:33:45;;;;;;;103.43;13.57;;;;;;;;;;4969157;28;20046;-71
2022/01/28 05:36:10;;;;;;;99.38;13.10;;;;;;;;;;4982165;28;20038;-70
2022/01/28 05:38:35;;;;;;;82.40;12.93;;;;;;;;;;4982416;28;20561;-70
2022/01/28 05:41:01;;;;;;;82.18;14.23;;;;;;;;;;5004679;28;20045;-70
2022/01/28 05:43:26;;;;;;;77.63;12.85;;;;;;;;;;4987516;28;20041;-71
2022/01/28 05:45:51;;;;;;;137.07;14.98;;;;;;;;;;4986232;28;20045;-70
2022/01/28 05:48:20;;;;;;;132.30;15.60;;;;;;;;;;4980439;28;20045;-70
2022/01/28 05:50:45;;;;;;;89.55;13.77;;;;;;;;;;4991624;28;20068;-71
2022/01/28 05:53:10;;;;;;;117.55;15.45;;;;;;;;;;4976408;28;20062;-70
2022/01/28 05:55:36;;;;;;;116.90;16.23;;;;;;;;;;4987280;28;20117;-71
2022/01/28 05:58:02;;;;;;;94.05;14.27;;;;;;;;;;4986899;28;20033;-71
2022/01/28 06:00:27;;;;;;;146.75;16.52;;;;;;;;;;5000847;28;20038;-71
2022/01/28 06:02:52;;;;;;;116.97;16.63;;;;;;;;;;4985903;28;20053;-71
2022/01/28 06:05:18;;;;;;;185.30;16.95;;;;;;;;;;4979565;28;20042;-71
2022/01/28 06:07:43;;;;;;;68.00;14.75;;;;;;;;;;4984337;28;20030;-71
2022/01/28 06:10:11;;;;;;;216.48;17.65;;;;;;;;;;4983058;28;20022;-71
2022/01/28 06:12:44;;;;;;;128.63;15.75;;;;;;;;;;4974127;28;20082;-71
2022/01/28 06:15:10;;;;;;;242.00;17.35;;;;;;;;;;4985554;28;20611;-70
2022/01/28 06:17:36;;;;;;;146.80;16.10;;;;;;;;;;4979329;28;20085;-71
2022/01/28 06:20:04;;;;;;;92.65;16.00;;;;;;;;;;4988513;28;20651;-70
2022/01/28 06:22:29;;;;;;;182.00;16.20;;;;;;;;;;4987412;28;20719;-71
2022/01/28 06:24:54;;;;;;;142.00;16.55;;;;;;;;;;4977745;28;20023;-71
2022/01/28 06:27:20;;;;;;;134.32;16.48;;;;;;;;;;4969211;28;20513;-71
2022/01/28 06:29:45;;;;;;;200.35;17.08;;;;;;;;;;4985660;28;20050;-71
2022/01/28 06:32:11;;;;;;;102.63;15.48;;;;;;;;;;4987803;28;20038;-71
2022/01/28 06:34:38;;;;;;;254.82;17.20;;;;;;;;;;4979726;28;20515;-71
2022/01/28 06:37:04;;;;;;;73.93;14.80;;;;;;;;;;4990867;28;20026;-71
2022/01/28 06:39:32;;;;;;;130.30;15.85;;;;;;;;;;4983452;28;20038;-71
2022/01/28 06:41:58;;;;;;;80.07;16.45;;;;;;;;;;4979513;28;20646;-71
2022/01/28 06:44:25;;;;;;;84.43;16.23;;;;;;;;;;4978147;28;20054;-70
2022/01/28 06:46:50;;;;;;;152.43;16.77;;;;;;;;;;4985018;28;20527;-71
2022/01/28 06:49:16;;;;;;;75.40;15.13;;;;;;;;;;4980913;28;20033;-71
2022/01/28 06:51:41;;;;;;;77.78;15.70;;;;;;;;;;4985392;28;20040;-71
2022/01/28 06:54:06;;;;;;;57.85;14.95;;;;;;;;;;4986231;28;20524;-71
2022/01/28 06:56:32;;;;;;;84.05;16.75;;;;;;;;;;4984912;28;20149;-71
2022/01/28 06:58:57;;;;;;;123.10;17.73;;;;;;;;;;4985789;28;20426;-71
2022/01/28 07:01:22;;;;;;;87.45;19.63;;;;;;;;;;4978570;28;20033;-70
2022/01/28 07:03:48;;;;;;;209.55;24.20;;;;;;;;;;4985021;28;20034;-71
2022/01/28 07:06:14;;;;;;;143.07;23.15;;;;;;;;;;4984096;28;20110;-71
2022/01/28 07:08:39;;;;;;;139.55;30.67;;;;;;;;;;4983752;28;20034;-70
2022/01/28 07:11:04;;;;;;;151.43;30.55;;;;;;;;;;4986725;28;20105;-71
2022/01/28 07:13:30;;;;;;;129.38;21.23;;;;;;;;;;4981628;28;20054;-71
2022/01/28 07:15:55;;;;;;;63.88;16.33;;;;;;;;;;4982452;28;20029;-71
2022/01/28 07:18:20;;;;;;;83.80;18.75;;;;;;;;;;4987119;28;20038;-70
2022/01/28 07:20:46;;;;;;;61.97;14.95;;;;;;;;;;4985300;28;20081;-70
2022/01/28 07:23:11;;;;;;;45.78;15.48;;;;;;;;;;4978619;28;20128;-70
2022/01/28 07:25:37;;;;;;;92.32;16.42;;;;;;;;;;4983457;28;20037;-71
2022/01/28 07:28:02;;;;;;;85.75;15.68;;;;;;;;;;4979791;28;20037;-70
2022/01/28 07:30:28;;;;;;;141.68;19.35;;;;;;;;;;4989842;28;20038;-70
2022/01/28 07:32:54;;;;;;;96.57;16.17;;;;;;;;;;4981404;28;20499;-70
2022/01/28 07:35:19;;;;;;;105.55;17.13;;;;;;;;;;4990831;28;20562;-70
2022/01/28 07:37:45;;;;;;;137.55;21.05;;;;;;;;;;4979334;28;20038;-70
2022/01/28 07:40:11;;;;;;;117.55;19.00;;;;;;;;;;4986808;28;20089;-70
2022/01/28 07:42:37;;;;;;;113.78;17.98;;;;;;;;;;4985132;28;20041;-70
2022/01/28 07:45:04;;;;;;;98.80;18.25;;;;;;;;;;4982222;28;20037;-70
2022/01/28 07:47:29;;;;;;;99.38;18.00;;;;;;;;;;4987555;28;20034;-70
2022/01/28 07:49:54;;;;;;;87.85;15.05;;;;;;;;;;4993385;28;20033;-70
2022/01/28 07:52:20;;;;;;;66.90;17.00;;;;;;;;;;4984018;28;20018;-71
2022/01/28 07:54:49;;;;;;;77.68;16.30;;;;;;;;;;4983449;28;20031;-70
2022/01/28 07:57:14;;;;;;;50.58;16.13;;;;;;;;;;4982734;28;20069;-71
2022/01/28 07:59:40;;;;;;;52.58;15.70;;;;;;;;;;4983025;28;20058;-70
2022/01/28 08:02:05;;;;;;;56.08;16.08;;;;;;;;;;4975590;28;20398;-71
2022/01/28 08:04:31;;;;;;;86.55;18.33;;;;;;;;;;4974192;28;20034;-70
2022/01/28 08:06:56;;;;;;;76.63;17.10;;;;;;;;;;4978707;28;20043;-70
2022/01/28 08:09:21;;;;;;;43.97;16.02;;;;;;;;;;4979348;28;20045;-70
2022/01/28 08:11:47;;;;;;;59.97;15.52;;;;;;;;;;4977077;28;20038;-70
2022/01/28 08:14:13;;;;;;;53.50;16.77;;;;;;;;;;4984741;28;20057;-71
2022/01/28 08:16:39;;;;;;;71.15;15.30;;;;;;;;;;4983808;28;20065;-70
2022/01/28 08:19:04;;;;;;;66.97;15.07;;;;;;;;;;4978960;28;20702;-68
2022/01/28 08:21:30;;;;;;;60.80;15.43;;;;;;;;;;4977092;28;20035;-68
2022/01/28 08:23:55;;;;;;;52.22;15.20;;;;;;;;;;4980862;28;20034;-71
2022/01/28 08:26:21;;;;;;;58.40;14.32;;;;;;;;;;4983035;28;20050;-71
2022/01/28 08:28:47;;;;;;;77.90;15.88;;;;;;;;;;4982996;28;20461;-70
2022/01/28 08:31:13;;;;;;;51.63;15.40;;;;;;;;;;4980643;28;20523;-70
2022/01/28 08:33:39;;;;;;;67.28;15.88;;;;;;;;;;4986085;28;20050;-70
2022/01/28 08:36:05;;;;;;;50.42;14.80;;;;;;;;;;4984969;28;20054;-70
2022/01/28 08:38:36;;;;;;;96.38;16.77;;;;;;;;;;4988303;28;20041;-70
2022/01/28 08:41:02;;;;;;;64.20;15.85;;;;;;;;;;4983302;28;20039;-70
2022/01/28 08:43:28;;;;;;;88.90;17.25;;;;;;;;;;4992405;28;20026;-70
2022/01/28 08:45:53;;;;;;;111.50;17.90;;;;;;;;;;4979389;28;20662;-70
2022/01/28 08:48:19;;;;;;;99.18;16.73;;;;;;;;;;4971353;28;20042;-70
2022/01/28 08:50:44;;;;;;;93.25;16.83;;;;;;;;;;4976621;28;20123;-71
2022/01/28 08:53:11;;;;;;;77.90;16.58;;;;;;;;;;4980073;28;20045;-70
2022/01/28 08:55:38;;;;;;;68.68;16.05;;;;;;;;;;4979732;28;20045;-71
2022/01/28 08:58:04;;;;;;;103.85;19.52;;;;;;;;;;4972700;28;20026;-72
2022/01/28 09:00:29;;;;;;;90.30;17.77;;;;;;;;;;4978209;28;20057;-72
2022/01/28 09:02:54;;;;;;;71.80;17.10;;;;;;;;;;5002464;28;20535;-72
2022/01/28 09:05:20;;;;;;;109.78;16.92;;;;;;;;;;4984790;28;20154;-73
2022/01/28 09:07:48;;;;;;;74.35;16.40;;;;;;;;;;4974294;28;20042;-72
2022/01/28 09:10:18;;;;;;;90.18;16.13;;;;;;;;;;5007170;28;20128;-72
2022/01/28 09:13:45;;;;;;;68.25;16.15;;;;;;;;;;4986977;28;20497;-72
2022/01/28 09:15:41;;;;;;;86.93;15.77;;;;;;;;;;4978285;28;20054;-72
2022/01/28 09:18:09;;;;;;;89.88;15.27;;;;;;;;;;4986730;28;20030;-73
2022/01/28 09:20:35;;;;;;;104.07;17.50;;;;;;;;;;4991385;28;20085;-72
2022/01/28 09:23:02;;;;;;;76.20;16.70;;;;;;;;;;4985778;28;20038;-70
2022/01/28 09:25:28;;;;;;;73.85;16.38;;;;;;;;;;4984080;28;20118;-70
2022/01/28 09:27:54;;;;;;;61.95;15.07;;;;;;;;;;4986956;28;20109;-70
2022/01/28 09:30:19;;;;;;;48.92;16.73;;;;;;;;;;5000215;28;20109;-70
2022/01/28 09:32:45;;;;;;;60.75;18.40;;;;;;;;;;4989395;28;20074;-70
2022/01/28 09:35:10;;;;;;;46.63;18.20;;;;;;;;;;5001015;28;20041;-70
2022/01/28 09:37:36;;;;;;;44.42;18.90;;;;;;;;;;4990117;28;20400;-70
2022/01/28 09:40:04;;;;;;;45.08;17.27;;;;;;;;;;4993342;28;20038;-70
2022/01/28 09:42:33;;;;;;;81.60;19.67;;;;;;;;;;4988928;28;20439;-70
2022/01/28 09:45:01;;;;;;;99.13;18.27;;;;;;;;;;4988477;28;20068;-70
2022/01/28 09:47:26;;;;;;;80.90;18.05;;;;;;;;;;4986924;28;20129;-70
2022/01/28 09:49:52;;;;;;;67.85;19.48;;;;;;;;;;4971312;28;20115;-72
2022/01/28 09:52:19;;;;;;;83.10;20.63;;;;;;;;;;4982179;28;20026;-71
2022/01/28 09:54:46;;;;;;;120.72;22.58;;;;;;;;;;4982827;28;20033;-71
2022/01/28 09:57:17;;;;;;;123.03;21.98;;;;;;;;;;4984591;28;20042;-72
2022/01/28 09:59:43;;;;;;;87.55;22.85;;;;;;;;;;4984260;28;20107;-69
2022/01/28 10:02:08;;;;;;;90.90;22.25;;;;;;;;;;4986374;28;20510;-71
2022/01/28 10:04:34;;;;;;;94.15;24.10;;;;;;;;;;4986122;28;20092;-70
2022/01/28 10:07:09;;;;;;;97.40;22.38;;;;;;;;;;4986447;28;20069;-71
2022/01/28 10:09:35;;;;;;;94.10;23.10;;;;;;;;;;4968555;28;20042;-71
2022/01/28 10:12:19;;;;;;;78.40;23.45;;;;;;;;;;4986511;28;20389;-71
2022/01/28 10:15:17;;;;;;;82.00;24.02;;;;;;;;;;4980017;28;20066;-71
2022/01/28 10:18:00;;;;;;;146.43;24.83;;;;;;;;;;4988544;28;20045;-69
2022/01/28 10:20:26;;;;;;;;;;;;;;;;;;5007352;28;20037;-70
2022/01/28 10:22:54;;;;;;;120.57;19.08;;;;;;;;;;4995114;28;19933;-70
2022/01/28 10:25:31;;;;;;;151.05;21.75;;;;;;;;;;4985752;28;20053;-71
2022/01/28 10:28:15;;;;;;;138.15;18.92;;;;;;;;;;4988440;28;20496;-73
2022/01/28 10:30:42;;;;;;;120.40;20.20;;;;;;;;;;4985492;28;20043;-74
2022/01/28 10:33:22;;;;;;;107.80;21.17;;;;;;;;;;4996851;28;20049;-73
2022/01/28 10:35:57;;;;;;;135.57;20.23;;;;;;;;;;5001746;28;20087;-71
2022/01/28 10:38:37;;;;;;;133.57;20.23;;;;;;;;;;5002597;28;20053;-68
2022/01/28 10:41:15;;;;;;;162.05;22.52;;;;;;;;;;4996809;28;20048;-71
2022/01/28 10:43:52;;;;;;;175.15;23.17;;;;;;;;;;4987615;28;20836;-71
2022/01/28 10:46:27;;;;;;;153.55;24.65;;;;;;;;;;5005414;28;20065;-71
2022/01/28 10:48:56;;;;;;;134.00;25.52;;;;;;;;;;5005223;28;20076;-71
2022/01/28 10:51:39;;;;;;;173.02;28.67;;;;;;;;;;5001554;28;20056;-71
2022/01/28 10:54:07;;;;;;;151.63;26.13;;;;;;;;;;5005363;28;20038;-71
2022/01/28 10:57:02;;;;;;;183.02;24.67;;;;;;;;;;5004386;28;20646;-70
2022/01/28 10:59:32;;;;;;;116.72;23.65;;;;;;;;;;4996343;28;20092;-71
2022/01/28 11:01:58;;;;;;;109.03;22.42;;;;;;;;;;4995918;28;20049;-71
2022/01/28 11:04:24;;;;;;;123.32;23.38;;;;;;;;;;5002776;28;20017;-71
2022/01/28 11:06:52;;;;;;;148.32;24.13;;;;;;;;;;4983696;28;20509;-72
2022/01/28 11:09:20;;;;;;;170.15;26.17;;;;;;;;;;4985415;28;20053;-72
2022/01/28 11:11:47;;;;;;;172.82;26.63;;;;;;;;;;4984134;28;20034;-72
2022/01/28 11:14:12;;;;;;;198.13;26.95;;;;;;;;;;4986465;28;20124;-71
2022/01/28 11:16:38;;;;;;;135.77;24.70;;;;;;;;;;4981530;28;20637;-71
2022/01/28 11:19:05;;;;;;;134.65;24.15;;;;;;;;;;4977722;28;20041;-67
2022/01/28 11:21:42;;;;;;;123.63;26.23;;;;;;;;;;4978462;28;20054;-70
2022/01/28 11:24:17;;;;;;;95.82;25.05;;;;;;;;;;4978704;28;20034;-70
2022/01/28 11:26:50;;;;;;;111.43;24.55;;;;;;;;;;4976007;28;20136;-70
2022/01/28 11:29:20;;;;;;;124.80;24.83;;;;;;;;;;4984338;28;20109;-71
2022/01/28 11:31:55;;;;;;;121.38;27.13;;;;;;;;;;4984505;28;20101;-70
2022/01/28 11:34:24;;;;;;;102.10;21.92;;;;;;;;;;4985605;28;20030;-70
2022/01/28 11:36:58;;;;;;;103.95;25.75;;;;;;;;;;4985729;28;20412;-70
2022/01/28 11:39:32;;;;;;;92.57;26.33;;;;;;;;;;4986236;28;20120;-70
2022/01/28 11:42:02;;;;;;;131.43;26.95;;;;;;;;;;4983916;28;20038;-70
2022/01/28 11:44:51;;;;;;;121.93;23.45;;;;;;;;;;4978345;28;20026;-70
2022/01/28 11:47:23;;;;;;;115.82;23.38;;;;;;;;;;4983396;28;20034;-70
2022/01/28 11:49:53;;;;;;;115.38;23.40;;;;;;;;;;4982332;28;20073;-70
2022/01/28 11:52:27;;;;;;;91.38;17.38;;;;;;;;;;4982599;28;20117;-70
2022/01/28 11:54:54;;;;;;;116.45;27.13;;;;;;;;;;4985435;28;20125;-71
2022/01/28 11:57:21;;;;;;;134.07;26.10;;;;;;;;;;4984269;28;20042;-71
2022/01/28 11:59:48;;;;;;;102.88;25.65;;;;;;;;;;4997355;28;20645;-71
2022/01/28 12:02:15;;;;;;;89.07;25.38;;;;;;;;;;5004308;28;20117;-69
2022/01/28 12:04:42;;;;;;;93.28;25.13;;;;;;;;;;4985525;28;20415;-67
2022/01/28 12:07:14;;;;;;;87.63;25.38;;;;;;;;;;5003544;28;20054;-68
2022/01/28 12:09:46;;;;;;;105.95;24.70;;;;;;;;;;5004669;28;20100;-69
2022/01/28 12:12:13;;;;;;;89.60;24.25;;;;;;;;;;5004203;28;20205;-70
2022/01/28 12:15:04;;;;;;;81.85;24.50;;;;;;;;;;5003353;28;20040;-69
2022/01/28 12:17:30;;;;;;;98.00;22.83;;;;;;;;;;5003565;28;20053;-68
2022/01/28 12:20:13;;;;;;;92.25;25.63;;;;;;;;;;5003407;28;20061;-68
2022/01/28 12:23:04;;;;;;;91.00;22.05;;;;;;;;;;5003758;28;20427;-68
2022/01/28 12:25:35;;;;;;;84.07;21.73;;;;;;;;;;5003623;28;20057;-69
2022/01/28 12:28:33;;;;;;;77.55;21.42;;;;;;;;;;5003704;28;20544;-68
2022/01/28 12:31:07;;;;;;;93.07;21.73;;;;;;;;;;4966247;28;20049;-69
2022/01/28 12:33:39;;;;;;;71.95;20.23;;;;;;;;;;4984709;28;20132;-65
2022/01/28 12:36:11;;;;;;;79.78;21.67;;;;;;;;;;4997578;28;20069;-67
2022/01/28 12:38:42;;;;;;;79.25;21.23;;;;;;;;;;4997151;28;20054;-68
2022/01/28 12:41:09;;;;;;;94.03;21.70;;;;;;;;;;5001130;28;20045;-68
2022/01/28 12:43:37;;;;;;;73.43;21.10;;;;;;;;;;5002953;28;20064;-67
2022/01/28 12:46:07;;;;;;;85.13;21.70;;;;;;;;;;5004662;28;20026;-67
2022/01/28 12:48:33;;;;;;;86.07;23.85;;;;;;;;;;4976064;28;20046;-69
2022/01/28 12:51:00;;;;;;;84.60;24.33;;;;;;;;;;4980649;28;20031;-72
2022/01/28 12:53:30;;;;;;;79.47;24.42;;;;;;;;;;4969621;28;20057;-73
2022/01/28 12:55:56;;;;;;;85.32;24.98;;;;;;;;;;4983378;28;20091;-72
2022/01/28 12:58:32;;;;;;;83.03;26.58;;;;;;;;;;4978854;28;20449;-73
2022/01/28 13:01:12;;;;;;;80.75;24.95;;;;;;;;;;4984626;28;20057;-73
2022/01/28 13:03:53;;;;;;;67.47;23.63;;;;;;;;;;4988724;28;20057;-72
2022/01/28 13:09:13;;;;;;;72.45;24.60;;;;;;;;;;4982927;28;20034;-72
2022/01/28 13:11:43;;;;;;;78.75;24.40;;;;;;;;;;4982505;28;20038;-73
2022/01/28 13:14:10;;;;;;;64.50;21.70;;;;;;;;;;4983348;28;20767;-72
2022/01/28 13:16:38;;;;;;;70.63;23.40;;;;;;;;;;4989542;28;20042;-71
2022/01/28 13:19:06;;;;;;;83.32;25.00;;;;;;;;;;5003970;28;20095;-72
2022/01/28 13:21:32;;;;;;;66.78;24.65;;;;;;;;;;5007360;28;20072;-73
2022/01/28 13:24:15;;;;;;;70.68;23.23;;;;;;;;;;5005002;28;20042;-74
2022/01/28 13:27:04;;;;;;;68.07;23.85;;;;;;;;;;5004539;28;20069;-73
2022/01/28 13:29:36;;;;;;;74.43;24.58;;;;;;;;;;5005611;28;20153;-71
2022/01/28 13:32:07;;;;;;;68.18;24.00;;;;;;;;;;5005871;28;20046;-72
2022/01/28 13:34:53;;;;;;;74.05;25.95;;;;;;;;;;5005040;28;20519;-71
2022/01/28 13:37:41;;;;;;;74.72;25.00;;;;;;;;;;5010030;28;20156;-70
2022/01/28 13:40:17;;;;;;;72.85;24.60;;;;;;;;;;4997414;28;20781;-74
2022/01/28 13:43:07;;;;;;;81.28;25.77;;;;;;;;;;5001723;28;20030;-72
2022/01/28 13:45:53;;;;;;;74.32;24.90;;;;;;;;;;4981874;28;20046;-73
2022/01/28 13:48:34;;;;;;;73.30;26.00;;;;;;;;;;4987529;28;20415;-74
2022/01/28 13:51:19;;;;;;;67.53;24.73;;;;;;;;;;4987844;28;20031;-72
2022/01/28 13:56:33;;;;;;;67.05;25.45;;;;;;;;;;4987065;28;20477;-72
2022/01/28 13:58:59;;;;;;;72.53;26.13;;;;;;;;;;4987563;28;20039;-72
2022/01/28 14:01:26;;;;;;;76.20;26.23;;;;;;;;;;4985749;28;20034;-73
2022/01/28 14:03:59;;;;;;;57.45;23.60;;;;;;;;;;4985424;28;20026;-72
2022/01/28 14:06:30;;;;;;;53.60;22.63;;;;;;;;;;4986423;28;20096;-71
2022/01/28 14:09:18;;;;;;;56.15;22.60;;;;;;;;;;4987885;28;20034;-71
2022/01/28 14:11:47;;;;;;;55.60;22.05;;;;;;;;;;4985680;28;20809;-73
2022/01/28 14:14:16;;;;;;;58.65;21.42;;;;;;;;;;4984232;28;20039;-70
2022/01/28 14:16:43;;;;;;;60.30;22.50;;;;;;;;;;4984780;28;20034;-71
2022/01/28 14:19:10;;;;;;;58.15;23.10;;;;;;;;;;4987234;28;20030;-72
2022/01/28 14:21:36;;;;;;;58.38;21.83;;;;;;;;;;4985605;28;20018;-71
2022/01/28 14:24:01;;;;;;;63.35;23.40;;;;;;;;;;4973038;28;20068;-74
2022/01/28 14:26:27;;;;;;;61.03;23.95;;;;;;;;;;4974790;28;20046;-70
2022/01/28 14:29:20;;;;;;;61.38;21.63;;;;;;;;;;4986374;28;20031;-72
2022/01/28 14:31:43;;;;;;;57.13;22.85;;;;;;;;;;4986543;28;20042;-74
2022/01/28 14:34:09;;;;;;;54.80;18.40;;;;;;;;;;4987557;28;20039;-74
2022/01/28 14:36:40;;;;;;;53.58;20.98;;;;;;;;;;4985892;28;20018;-72
2022/01/28 14:39:05;;;;;;;49.28;17.70;;;;;;;;;;4986195;28;20042;-71
2022/01/28 14:41:30;;;;;;;54.58;20.83;;;;;;;;;;4984968;28;20084;-72
2022/01/28 14:43:56;;;;;;;49.80;19.45;;;;;;;;;;4976841;28;20033;-72
2022/01/28 14:46:21;;;;;;;51.08;19.73;;;;;;;;;;4976443;28;20089;-72
2022/01/28 14:48:46;;;;;;;52.00;19.02;;;;;;;;;;4979242;28;20022;-73
2022/01/28 14:51:12;;;;;;;46.13;19.05;;;;;;;;;;4988505;28;20030;-73
2022/01/28 14:53:38;;;;;;;47.33;18.48;;;;;;;;;;4991812;28;20088;-73
2022/01/28 14:56:03;;;;;;;40.78;16.20;;;;;;;;;;4984498;28;20038;-72
2022/01/28 14:58:28;;;;;;;44.47;17.25;;;;;;;;;;4985611;28;20078;-71
2022/01/28 15:00:54;;;;;;;38.95;16.10;;;;;;;;;;4983128;28;20023;-73
2022/01/28 15:03:19;;;;;;;35.65;14.15;;;;;;;;;;4979245;28;20070;-73
2022/01/28 15:05:44;;;;;;;29.15;12.75;;;;;;;;;;4981565;28;20042;-74
2022/01/28 15:08:11;;;;;;;32.10;14.02;;;;;;;;;;4979336;28;20048;-74
2022/01/28 15:10:38;;;;;;;37.33;14.00;;;;;;;;;;4983045;28;20129;-73
2022/01/28 15:13:03;;;;;;;42.00;16.40;;;;;;;;;;4987013;28;20026;-74
2022/01/28 15:15:29;;;;;;;27.02;12.90;;;;;;;;;;4989444;28;20486;-73
2022/01/28 15:17:55;;;;;;;34.72;12.85;;;;;;;;;;4984463;28;20696;-72
2022/01/28 15:20:21;;;;;;;32.97;14.23;;;;;;;;;;4983511;28;20046;-72
2022/01/28 15:22:47;;;;;;;34.47;14.75;;;;;;;;;;4983834;28;20069;-72
2022/01/28 15:25:12;;;;;;;39.72;16.80;;;;;;;;;;4985809;28;20117;-73
2022/01/28 15:27:39;;;;;;;34.50;15.25;;;;;;;;;;4980921;28;20026;-73
2022/01/28 15:30:09;;;;;;;36.47;14.98;;;;;;;;;;4983364;28;20118;-73
2022/01/28 15:37:56;;;;;;;42.15;16.40;;;;;;;;;;4982308;28;20520;-68
2022/01/28 15:40:21;;;;;;;31.50;13.20;;;;;;;;;;4980650;28;20049;-68
2022/01/28 15:42:50;;;;;;;39.35;14.50;;;;;;;;;;4982361;28;20065;-69
2022/01/28 15:45:15;;;;;;;39.95;13.80;;;;;;;;;;4974597;28;20049;-70
2022/01/28 15:47:41;;;;;;;19.65;8.52;;;;;;;;;;4974886;28;20043;-73
2022/01/28 15:50:07;;;;;;;31.13;12.43;;;;;;;;;;4977318;28;20037;-70
2022/01/28 15:52:33;;;;;;;30.42;12.77;;;;;;;;;;4977824;28;20054;-72
2022/01/28 15:54:58;;;;;;;29.63;12.68;;;;;;;;;;4972689;28;20050;-73
2022/01/28 15:57:24;;;;;;;37.42;14.45;;;;;;;;;;4973471;28;20042;-73